sensor_id;sensor_type;location;lat;lon;timestamp;pressure;altitude;pressure_sealevel;temperature;humidity
72636;BME280;60679;48.888;15.544;2023-04-01T00:00:31;94688.88;;;6.32;73.50
72636;BME280;60679;48.888;15.544;2023-04-01T00:02:57;94690.63;;;6.26;73.48
72636;BME280;60679;48.888;15.544;2023-04-01T00:05:22;94693.44;;;6.20;73.58
72636;BME280;60679;48.888;15.544;2023-04-01T00:07:49;94690.41;;;6.16;73.63
72636;BME280;60679;48.888;15.544;2023-04-01T00:10:15;94693.91;;;6.17;73.79
72636;BME280;60679;48.888;15.544;2023-04-01T00:12:41;94693.91;;;6.17;73.46
72636;BME280;60679;48.888;15.544;2023-04-01T00:15:08;94693.91;;;6.17;73.28
72636;BME280;60679;48.888;15.544;2023-04-01T00:17:34;94692.97;;;6.11;73.60
72636;BME280;60679;48.888;15.544;2023-04-01T00:20:01;94694.13;;;6.15;73.66
72636;BME280;60679;48.888;15.544;2023-04-01T00:22:27;94691.78;;;6.19;73.70
72636;BME280;60679;48.888;15.544;2023-04-01T00:24:53;94686.44;;;6.19;74.09
72636;BME280;60679;48.888;15.544;2023-04-01T00:27:24;94696.22;;;6.13;73.80
72636;BME280;60679;48.888;15.544;2023-04-01T00:29:50;94689.38;;;6.06;73.70
72636;BME280;60679;48.888;15.544;2023-04-01T00:32:15;94688.19;;;6.02;73.71
72636;BME280;60679;48.888;15.544;2023-04-01T00:34:41;94694.72;;;6.06;73.91
72636;BME280;60679;48.888;15.544;2023-04-01T00:37:07;94694.03;;;5.99;73.84
72636;BME280;60679;48.888;15.544;2023-04-01T00:39:34;94690.78;;;5.97;73.89
72636;BME280;60679;48.888;15.544;2023-04-01T00:42:01;94696.84;;;5.92;73.79
72636;BME280;60679;48.888;15.544;2023-04-01T00:44:29;94704.75;;;5.87;73.93
72636;BME280;60679;48.888;15.544;2023-04-01T00:46:59;94711.53;;;5.90;74.01
72636;BME280;60679;48.888;15.544;2023-04-01T00:49:52;94714.66;;;5.87;73.95
72636;BME280;60679;48.888;15.544;2023-04-01T00:52:22;94715.09;;;5.83;74.00
72636;BME280;60679;48.888;15.544;2023-04-01T00:54:54;94714.66;;;5.87;73.98
72636;BME280;60679;48.888;15.544;2023-04-01T00:57:36;94714.06;;;5.96;74.11
72636;BME280;60679;48.888;15.544;2023-04-01T01:00:06;94717.81;;;5.95;73.90
72636;BME280;60679;48.888;15.544;2023-04-01T01:02:34;94714.19;;;5.90;74.13
72636;BME280;60679;48.888;15.544;2023-04-01T01:05:00;94712.41;;;5.83;74.05
72636;BME280;60679;48.888;15.544;2023-04-01T01:10:30;94713.81;;;5.74;74.21
72636;BME280;60679;48.888;15.544;2023-04-01T01:13:17;94718.59;;;5.72;74.18
72636;BME280;60679;48.888;15.544;2023-04-01T01:15:52;94718.72;;;5.89;74.27
72636;BME280;60679;48.888;15.544;2023-04-01T01:18:31;94719.88;;;5.93;73.97
72636;BME280;60679;48.888;15.544;2023-04-01T01:21:37;94721.63;;;5.99;74.22
72636;BME280;60679;48.888;15.544;2023-04-01T01:27:18;94721.41;;;6.12;74.19
72636;BME280;60679;48.888;15.544;2023-04-01T01:35:10;94729.16;;;6.49;74.09
72636;BME280;60679;48.888;15.544;2023-04-01T01:37:53;94729.84;;;6.56;74.02
72636;BME280;60679;48.888;15.544;2023-04-01T01:40:20;94723.06;;;6.65;73.95
72636;BME280;60679;48.888;15.544;2023-04-01T01:42:49;94723.84;;;6.77;73.96
72636;BME280;60679;48.888;15.544;2023-04-01T01:45:18;94726.06;;;6.80;73.97
72636;BME280;60679;48.888;15.544;2023-04-01T01:47:46;94721.41;;;6.75;73.98
72636;BME280;60679;48.888;15.544;2023-04-01T01:50:13;94717.75;;;6.81;73.81
72636;BME280;60679;48.888;15.544;2023-04-01T01:52:40;94730.13;;;6.82;73.75
72636;BME280;60679;48.888;15.544;2023-04-01T01:57:50;94725.38;;;7.01;73.77
72636;BME280;60679;48.888;15.544;2023-04-01T02:00:16;94728.53;;;6.98;73.62
72636;BME280;60679;48.888;15.544;2023-04-01T02:02:45;94724.81;;;6.99;73.75
72636;BME280;60679;48.888;15.544;2023-04-01T02:05:16;94728.06;;;7.01;73.70
72636;BME280;60679;48.888;15.544;2023-04-01T02:07:45;94717.59;;;7.00;73.65
72636;BME280;60679;48.888;15.544;2023-04-01T02:10:12;94718.97;;;7.02;73.70
72636;BME280;60679;48.888;15.544;2023-04-01T02:12:38;94712.41;;;7.10;73.87
72636;BME280;60679;48.888;15.544;2023-04-01T02:15:09;94715.34;;;7.08;73.57
72636;BME280;60679;48.888;15.544;2023-04-01T02:17:39;94712.88;;;7.07;73.66
72636;BME280;60679;48.888;15.544;2023-04-01T02:20:19;94720.72;;;7.08;73.75
72636;BME280;60679;48.888;15.544;2023-04-01T02:22:51;94717.03;;;7.14;73.78
72636;BME280;60679;48.888;15.544;2023-04-01T02:25:21;94720.53;;;7.15;73.63
72636;BME280;60679;48.888;15.544;2023-04-01T02:27:48;94714.13;;;7.16;73.66
72636;BME280;60679;48.888;15.544;2023-04-01T02:30:15;94717.78;;;7.10;73.67
72636;BME280;60679;48.888;15.544;2023-04-01T02:32:41;94705.16;;;7.10;73.75
72636;BME280;60679;48.888;15.544;2023-04-01T02:35:13;94707.59;;;7.12;73.61
72636;BME280;60679;48.888;15.544;2023-04-01T02:37:40;94705.66;;;7.07;73.72
72636;BME280;60679;48.888;15.544;2023-04-01T02:40:10;94702.16;;;7.07;73.74
72636;BME280;60679;48.888;15.544;2023-04-01T02:42:36;94699.94;;;7.04;73.65
72636;BME280;60679;48.888;15.544;2023-04-01T02:45:03;94701.22;;;7.01;73.64
72636;BME280;60679;48.888;15.544;2023-04-01T02:47:28;94703.34;;;6.99;73.67
72636;BME280;60679;48.888;15.544;2023-04-01T02:49:54;94684.78;;;6.97;73.73
72636;BME280;60679;48.888;15.544;2023-04-01T02:52:24;94693.91;;;6.96;73.81
72636;BME280;60679;48.888;15.544;2023-04-01T02:54:50;94696.72;;;6.90;73.84
72636;BME280;60679;48.888;15.544;2023-04-01T02:57:16;94703.97;;;6.89;73.66
72636;BME280;60679;48.888;15.544;2023-04-01T02:59:41;94699.06;;;6.86;73.63
72636;BME280;60679;48.888;15.544;2023-04-01T03:02:07;94690.94;;;6.81;73.63
72636;BME280;60679;48.888;15.544;2023-04-01T03:04:35;94695.91;;;6.89;74.07
72636;BME280;60679;48.888;15.544;2023-04-01T03:07:00;94697.00;;;6.88;73.99
72636;BME280;60679;48.888;15.544;2023-04-01T03:09:26;94700.72;;;6.87;74.08
72636;BME280;60679;48.888;15.544;2023-04-01T03:11:51;94693.22;;;6.89;74.02
72636;BME280;60679;48.888;15.544;2023-04-01T03:14:17;94698.03;;;6.87;73.65
72636;BME280;60679;48.888;15.544;2023-04-01T03:16:42;94690.13;;;6.81;73.73
72636;BME280;60679;48.888;15.544;2023-04-01T03:19:07;94689.91;;;6.82;74.19
72636;BME280;60679;48.888;15.544;2023-04-01T03:21:33;94686.38;;;6.82;74.26
72636;BME280;60679;48.888;15.544;2023-04-01T03:23:58;94697.94;;;6.82;74.10
72636;BME280;60679;48.888;15.544;2023-04-01T03:26:24;94690.47;;;6.84;74.07
72636;BME280;60679;48.888;15.544;2023-04-01T03:28:52;94693.16;;;6.84;73.85
72636;BME280;60679;48.888;15.544;2023-04-01T03:31:17;94697.03;;;6.77;73.81
72636;BME280;60679;48.888;15.544;2023-04-01T03:33:42;94690.84;;;6.76;74.10
72636;BME280;60679;48.888;15.544;2023-04-01T03:36:08;94704.81;;;6.78;73.80
72636;BME280;60679;48.888;15.544;2023-04-01T03:38:34;94692.34;;;6.72;74.14
72636;BME280;60679;48.888;15.544;2023-04-01T03:41:00;94693.19;;;6.73;74.06
72636;BME280;60679;48.888;15.544;2023-04-01T03:43:26;94699.72;;;6.77;74.02
72636;BME280;60679;48.888;15.544;2023-04-01T03:45:53;94696.44;;;6.75;74.14
72636;BME280;60679;48.888;15.544;2023-04-01T03:48:20;94702.88;;;6.74;73.99
72636;BME280;60679;48.888;15.544;2023-04-01T03:50:46;94704.63;;;6.68;73.90
72636;BME280;60679;48.888;15.544;2023-04-01T03:53:11;94700.56;;;6.66;74.05
72636;BME280;60679;48.888;15.544;2023-04-01T03:55:37;94696.25;;;6.65;74.11
72636;BME280;60679;48.888;15.544;2023-04-01T03:58:04;94702.91;;;6.62;74.08
72636;BME280;60679;48.888;15.544;2023-04-01T04:00:30;94708.97;;;6.58;74.17
72636;BME280;60679;48.888;15.544;2023-04-01T04:02:55;94697.75;;;6.61;74.45
72636;BME280;60679;48.888;15.544;2023-04-01T04:05:22;94697.28;;;6.64;73.98
72636;BME280;60679;48.888;15.544;2023-04-01T04:07:48;94698.00;;;6.59;74.32
72636;BME280;60679;48.888;15.544;2023-04-01T04:10:13;94706.41;;;6.63;74.47
72636;BME280;60679;48.888;15.544;2023-04-01T04:12:39;94708.50;;;6.61;74.30
72636;BME280;60679;48.888;15.544;2023-04-01T04:15:06;94712.47;;;6.58;73.92
72636;BME280;60679;48.888;15.544;2023-04-01T04:17:32;94712.94;;;6.55;74.20
72636;BME280;60679;48.888;15.544;2023-04-01T04:20:02;94710.72;;;6.52;74.29
72636;BME280;60679;48.888;15.544;2023-04-01T04:22:28;94706.66;;;6.50;74.22
72636;BME280;60679;48.888;15.544;2023-04-01T04:24:55;94715.75;;;6.49;74.41
72636;BME280;60679;48.888;15.544;2023-04-01T04:27:21;94710.72;;;6.52;74.29
72636;BME280;60679;48.888;15.544;2023-04-01T04:29:46;94711.06;;;6.56;74.31
72636;BME280;60679;48.888;15.544;2023-04-01T04:32:11;94711.31;;;6.54;74.24
72636;BME280;60679;48.888;15.544;2023-04-01T04:34:40;94713.19;;;6.54;74.37
72636;BME280;60679;48.888;15.544;2023-04-01T04:37:07;94712.84;;;6.50;74.22
72636;BME280;60679;48.888;15.544;2023-04-01T04:39:32;94712.47;;;6.47;74.24
72636;BME280;60679;48.888;15.544;2023-04-01T04:41:59;94701.09;;;6.39;74.04
72636;BME280;60679;48.888;15.544;2023-04-01T04:44:25;94702.47;;;6.42;74.11
72636;BME280;60679;48.888;15.544;2023-04-01T04:46:50;94708.41;;;6.44;74.23
72636;BME280;60679;48.888;15.544;2023-04-01T04:49:17;94710.28;;;6.44;74.17
72636;BME280;60679;48.888;15.544;2023-04-01T04:51:43;94712.47;;;6.47;74.34
72636;BME280;60679;48.888;15.544;2023-04-01T04:54:09;94708.88;;;6.53;74.31
72636;BME280;60679;48.888;15.544;2023-04-01T04:56:34;94711.44;;;6.48;74.02
72636;BME280;60679;48.888;15.544;2023-04-01T04:59:01;94701.63;;;6.53;74.20
72636;BME280;60679;48.888;15.544;2023-04-01T05:01:27;94716.09;;;6.52;73.89
72636;BME280;60679;48.888;15.544;2023-04-01T05:03:52;94721.22;;;6.54;74.08
72636;BME280;60679;48.888;15.544;2023-04-01T05:06:18;94721.56;;;6.57;74.12
72636;BME280;60679;48.888;15.544;2023-04-01T05:08:45;94719.22;;;6.61;73.97
72636;BME280;60679;48.888;15.544;2023-04-01T05:11:16;94722.81;;;6.66;73.78
72636;BME280;60679;48.888;15.544;2023-04-01T05:13:46;94715.25;;;6.63;73.82
72636;BME280;60679;48.888;15.544;2023-04-01T05:16:14;94726.41;;;6.72;73.80
72636;BME280;60679;48.888;15.544;2023-04-01T05:18:40;94725.16;;;6.74;73.77
72636;BME280;60679;48.888;15.544;2023-04-01T05:21:07;94722.31;;;6.81;73.63
72636;BME280;60679;48.888;15.544;2023-04-01T05:23:34;94730.78;;;6.89;73.38
72636;BME280;60679;48.888;15.544;2023-04-01T05:26:10;94719.84;;;6.91;73.26
72636;BME280;60679;48.888;15.544;2023-04-01T05:28:36;94718.53;;;6.93;73.24
72636;BME280;60679;48.888;15.544;2023-04-01T05:31:10;94721.41;;;7.04;73.06
72636;BME280;60679;48.888;15.544;2023-04-01T05:33:36;94719.63;;;7.09;72.67
72636;BME280;60679;48.888;15.544;2023-04-01T05:36:10;94714.69;;;7.18;72.63
72636;BME280;60679;48.888;15.544;2023-04-01T05:38:40;94716.50;;;7.29;72.34
72636;BME280;60679;48.888;15.544;2023-04-01T05:41:08;94726.28;;;7.35;72.54
72636;BME280;60679;48.888;15.544;2023-04-01T05:43:38;94719.28;;;7.34;72.38
72636;BME280;60679;48.888;15.544;2023-04-01T05:46:05;94716.91;;;7.37;72.20
72636;BME280;60679;48.888;15.544;2023-04-01T05:48:41;94716.28;;;7.47;72.08
72636;BME280;60679;48.888;15.544;2023-04-01T05:51:13;94715.91;;;7.55;71.86
72636;BME280;60679;48.888;15.544;2023-04-01T05:53:39;94721.69;;;7.64;71.88
72636;BME280;60679;48.888;15.544;2023-04-01T05:56:11;94718.59;;;7.72;71.68
72636;BME280;60679;48.888;15.544;2023-04-01T05:58:43;94726.78;;;7.82;71.60
72636;BME280;60679;48.888;15.544;2023-04-01T06:04:21;94715.47;;;7.96;71.07
72636;BME280;60679;48.888;15.544;2023-04-01T06:06:51;94724.84;;;8.10;70.87
72636;BME280;60679;48.888;15.544;2023-04-01T06:09:30;94711.28;;;8.22;70.66
72636;BME280;60679;48.888;15.544;2023-04-01T06:14:46;94729.94;;;8.45;70.41
72636;BME280;60679;48.888;15.544;2023-04-01T06:17:41;94728.59;;;8.64;69.94
72636;BME280;60679;48.888;15.544;2023-04-01T06:23:18;94729.75;;;8.95;69.67
72636;BME280;60679;48.888;15.544;2023-04-01T06:33:48;94729.69;;;9.12;69.14
72636;BME280;60679;48.888;15.544;2023-04-01T06:36:34;94743.00;;;9.23;68.75
72636;BME280;60679;48.888;15.544;2023-04-01T06:41:55;94745.34;;;9.37;68.80
72636;BME280;60679;48.888;15.544;2023-04-01T06:47:52;94741.41;;;9.49;68.47
72636;BME280;60679;48.888;15.544;2023-04-01T06:53:36;94746.66;;;9.93;68.03
72636;BME280;60679;48.888;15.544;2023-04-01T06:56:08;94755.44;;;10.10;67.73
72636;BME280;60679;48.888;15.544;2023-04-01T06:58:42;94748.63;;;10.34;67.59
72636;BME280;60679;48.888;15.544;2023-04-01T07:01:34;94747.13;;;10.53;67.26
72636;BME280;60679;48.888;15.544;2023-04-01T07:04:08;94759.66;;;10.69;66.92
72636;BME280;60679;48.888;15.544;2023-04-01T07:09:25;94766.50;;;10.87;66.54
72636;BME280;60679;48.888;15.544;2023-04-01T07:11:53;94756.53;;;10.92;66.68
72636;BME280;60679;48.888;15.544;2023-04-01T07:14:31;94765.00;;;11.16;66.60
72636;BME280;60679;48.888;15.544;2023-04-01T07:22:52;94778.00;;;12.47;64.54
72636;BME280;60679;48.888;15.544;2023-04-01T07:25:31;94786.66;;;12.44;64.34
72636;BME280;60679;48.888;15.544;2023-04-01T07:28:10;94786.84;;;12.93;63.36
72636;BME280;60679;48.888;15.544;2023-04-01T07:33:18;94779.84;;;12.77;63.39
72636;BME280;60679;48.888;15.544;2023-04-01T07:36:08;94800.19;;;12.44;64.03
72636;BME280;60679;48.888;15.544;2023-04-01T07:44:34;94790.34;;;13.13;64.39
72636;BME280;60679;48.888;15.544;2023-04-01T07:50:02;94798.25;;;11.94;65.73
72636;BME280;60679;48.888;15.544;2023-04-01T07:52:39;94802.84;;;11.16;66.80
72636;BME280;60679;48.888;15.544;2023-04-01T07:58:13;94800.84;;;10.50;67.94
72636;BME280;60679;48.888;15.544;2023-04-01T08:01:15;94807.97;;;10.34;68.03
72636;BME280;60679;48.888;15.544;2023-04-01T08:04:03;94805.28;;;10.34;68.41
72636;BME280;60679;48.888;15.544;2023-04-01T08:17:10;94789.25;;;13.04;64.73
72636;BME280;60679;48.888;15.544;2023-04-01T08:22:34;94791.41;;;14.64;61.96
72636;BME280;60679;48.888;15.544;2023-04-01T08:25:05;94793.53;;;15.48;60.96
72636;BME280;60679;48.888;15.544;2023-04-01T08:27:45;94791.81;;;15.76;59.57
72636;BME280;60679;48.888;15.544;2023-04-01T08:30:19;94792.75;;;15.43;59.89
72636;BME280;60679;48.888;15.544;2023-04-01T08:33:09;94785.19;;;14.87;61.25
72636;BME280;60679;48.888;15.544;2023-04-01T08:38:19;94780.78;;;14.29;61.55
72636;BME280;60679;48.888;15.544;2023-04-01T08:40:56;94787.28;;;13.89;61.86
72636;BME280;60679;48.888;15.544;2023-04-01T08:43:56;94786.94;;;14.44;61.68
72636;BME280;60679;48.888;15.544;2023-04-01T08:47:06;94788.47;;;16.03;59.37
72636;BME280;60679;48.888;15.544;2023-04-01T08:55:31;94777.75;;;16.62;57.18
72636;BME280;60679;48.888;15.544;2023-04-01T09:28:02;94837.75;;;14.78;58.78
72636;BME280;60679;48.888;15.544;2023-04-01T09:35:38;94825.88;;;12.92;62.51
72636;BME280;60679;48.888;15.544;2023-04-01T09:41:05;94819.09;;;16.32;55.85
72636;BME280;60679;48.888;15.544;2023-04-01T09:46:36;94813.81;;;20.48;49.87
72636;BME280;60679;48.888;15.544;2023-04-01T09:49:37;94818.97;;;18.07;54.41
72636;BME280;60679;48.888;15.544;2023-04-01T09:54:59;94817.28;;;24.97;40.86
72636;BME280;60679;48.888;15.544;2023-04-01T10:00:35;94813.66;;;28.08;36.67
72636;BME280;60679;48.888;15.544;2023-04-01T10:03:37;94804.94;;;31.19;33.02
72636;BME280;60679;48.888;15.544;2023-04-01T10:51:42;94811.78;;;17.29;53.59
72636;BME280;60679;48.888;15.544;2023-04-01T10:56:49;94810.09;;;15.94;55.63
72636;BME280;60679;48.888;15.544;2023-04-01T11:02:56;94810.81;;;20.19;48.19
72636;BME280;60679;48.888;15.544;2023-04-01T11:27:51;94789.91;;;33.78;29.16
72636;BME280;60679;48.888;15.544;2023-04-01T11:30:29;94786.09;;;35.12;27.71
72636;BME280;60679;48.888;15.544;2023-04-01T11:36:07;94783.16;;;35.60;27.46
72636;BME280;60679;48.888;15.544;2023-04-01T11:41:30;94789.03;;;36.30;27.20
72636;BME280;60679;48.888;15.544;2023-04-01T11:44:20;94785.25;;;37.13;26.60
72636;BME280;60679;48.888;15.544;2023-04-01T12:09:07;94788.25;;;36.79;25.39
72636;BME280;60679;48.888;15.544;2023-04-01T12:19:58;94797.53;;;37.03;24.28
72636;BME280;60679;48.888;15.544;2023-04-01T12:25:24;94786.41;;;33.49;27.69
72636;BME280;60679;48.888;15.544;2023-04-01T12:39:26;94786.25;;;37.66;23.95
72636;BME280;60679;48.888;15.544;2023-04-01T12:53:50;94778.94;;;39.82;23.15
72636;BME280;60679;48.888;15.544;2023-04-01T12:59:19;94776.41;;;33.45;30.15
72636;BME280;60679;48.888;15.544;2023-04-01T13:02:07;94771.88;;;36.74;25.87
72636;BME280;60679;48.888;15.544;2023-04-01T13:04:48;94782.63;;;26.83;37.79
72636;BME280;60679;48.888;15.544;2023-04-01T13:10:14;94800.69;;;19.10;48.39
72636;BME280;60679;48.888;15.544;2023-04-01T13:15:55;94807.56;;;15.61;52.78
72636;BME280;60679;48.888;15.544;2023-04-01T13:21:20;94811.31;;;16.26;51.50
72636;BME280;60679;48.888;15.544;2023-04-01T13:23:55;94827.56;;;16.68;51.15
72636;BME280;60679;48.888;15.544;2023-04-01T13:29:21;94873.28;;;18.22;48.86
72636;BME280;60679;48.888;15.544;2023-04-01T13:40:14;94805.63;;;37.21;25.51
72636;BME280;60679;48.888;15.544;2023-04-01T13:43:25;94798.31;;;35.97;27.88
72636;BME280;60679;48.888;15.544;2023-04-01T13:59:58;94791.38;;;34.04;28.92
72636;BME280;60679;48.888;15.544;2023-04-01T14:02:44;94793.66;;;36.43;26.65
72636;BME280;60679;48.888;15.544;2023-04-01T14:05:28;94795.03;;;37.28;24.91
72636;BME280;60679;48.888;15.544;2023-04-01T14:08:14;94794.97;;;32.40;31.21
72636;BME280;60679;48.888;15.544;2023-04-01T14:10:50;94788.78;;;34.31;28.50
72636;BME280;60679;48.888;15.544;2023-04-01T14:16:11;94795.22;;;23.64;41.16
72636;BME280;60679;48.888;15.544;2023-04-01T14:19:03;94802.00;;;19.74;46.89
72636;BME280;60679;48.888;15.544;2023-04-01T14:21:47;94813.91;;;17.46;49.82
72636;BME280;60679;48.888;15.544;2023-04-01T14:24:42;94835.28;;;15.34;51.59
72636;BME280;60679;48.888;15.544;2023-04-01T14:40:49;94814.00;;;33.61;28.00
72636;BME280;60679;48.888;15.544;2023-04-01T14:44:05;94804.88;;;31.02;31.03
72636;BME280;60679;48.888;15.544;2023-04-01T14:49:40;94801.09;;;34.92;27.44
72636;BME280;60679;48.888;15.544;2023-04-01T14:52:38;94799.44;;;31.30;31.50
72636;BME280;60679;48.888;15.544;2023-04-01T14:55:58;94817.91;;;23.81;40.72
72636;BME280;60679;48.888;15.544;2023-04-01T14:58:24;94809.13;;;20.49;44.68
72636;BME280;60679;48.888;15.544;2023-04-01T15:03:51;94831.25;;;17.69;47.81
72636;BME280;60679;48.888;15.544;2023-04-01T15:17:19;94809.38;;;15.89;48.42
72636;BME280;60679;48.888;15.544;2023-04-01T15:20:19;94812.25;;;15.26;49.89
72636;BME280;60679;48.888;15.544;2023-04-01T15:25:42;94818.22;;;15.28;49.02
72636;BME280;60679;48.888;15.544;2023-04-01T15:33:42;94802.25;;;27.71;31.66
72636;BME280;60679;48.888;15.544;2023-04-01T15:36:28;94815.44;;;21.73;39.03
72636;BME280;60679;48.888;15.544;2023-04-01T15:47:34;94829.13;;;15.76;47.39
72636;BME280;60679;48.888;15.544;2023-04-01T15:52:47;94836.44;;;14.70;49.04
72636;BME280;60679;48.888;15.544;2023-04-01T15:55:25;94824.78;;;14.26;49.43
72636;BME280;60679;48.888;15.544;2023-04-01T16:01:18;94830.25;;;13.77;50.63
72636;BME280;60679;48.888;15.544;2023-04-01T16:07:15;94825.72;;;14.06;50.66
72636;BME280;60679;48.888;15.544;2023-04-01T16:21:35;94813.38;;;20.15;41.46
72636;BME280;60679;48.888;15.544;2023-04-01T16:24:24;94816.94;;;19.37;42.80
72636;BME280;60679;48.888;15.544;2023-04-01T16:30:26;94829.09;;;18.56;43.54
72636;BME280;60679;48.888;15.544;2023-04-01T16:33:21;94834.38;;;15.43;48.38
72636;BME280;60679;48.888;15.544;2023-04-01T16:38:49;94842.28;;;16.30;46.75
72636;BME280;60679;48.888;15.544;2023-04-01T16:43:49;94851.78;;;14.90;49.06
72636;BME280;60679;48.888;15.544;2023-04-01T16:46:32;94856.25;;;14.76;49.02
72636;BME280;60679;48.888;15.544;2023-04-01T16:49:05;94862.84;;;13.62;50.72
72636;BME280;60679;48.888;15.544;2023-04-01T16:51:53;94874.56;;;13.47;51.03
72636;BME280;60679;48.888;15.544;2023-04-01T16:54:35;94885.44;;;12.31;53.03
72636;BME280;60679;48.888;15.544;2023-04-01T16:59:46;94879.88;;;11.24;54.90
72636;BME280;60679;48.888;15.544;2023-04-01T17:02:20;94875.75;;;10.69;55.92
72636;BME280;60679;48.888;15.544;2023-04-01T17:10:33;94888.84;;;10.02;56.49
72636;BME280;60679;48.888;15.544;2023-04-01T17:23:38;94921.78;;;9.01;58.45
72636;BME280;60679;48.888;15.544;2023-04-01T17:26:20;94930.16;;;8.83;58.87
72636;BME280;60679;48.888;15.544;2023-04-01T17:42:55;94932.34;;;8.24;59.59
72636;BME280;60679;48.888;15.544;2023-04-01T17:45:47;94949.69;;;8.17;59.86
72636;BME280;60679;48.888;15.544;2023-04-01T18:00:32;94966.38;;;8.19;60.26
72636;BME280;60679;48.888;15.544;2023-04-01T18:06:31;94974.19;;;8.03;60.41
72636;BME280;60679;48.888;15.544;2023-04-01T18:12:20;94989.34;;;8.09;60.40
72636;BME280;60679;48.888;15.544;2023-04-01T18:17:55;94986.91;;;8.08;60.66
72636;BME280;60679;48.888;15.544;2023-04-01T18:23:39;94994.31;;;8.01;60.86
72636;BME280;60679;48.888;15.544;2023-04-01T18:26:23;94989.63;;;7.96;60.82
72636;BME280;60679;48.888;15.544;2023-04-01T18:32:17;94998.78;;;7.84;60.94
72636;BME280;60679;48.888;15.544;2023-04-01T18:35:14;94997.44;;;7.70;61.22
72636;BME280;60679;48.888;15.544;2023-04-01T18:40:35;94995.81;;;7.45;61.46
72636;BME280;60679;48.888;15.544;2023-04-01T18:43:34;95007.03;;;7.42;61.82
72636;BME280;60679;48.888;15.544;2023-04-01T18:46:12;95004.59;;;7.29;61.55
72636;BME280;60679;48.888;15.544;2023-04-01T18:48:52;95010.44;;;7.26;61.83
72636;BME280;60679;48.888;15.544;2023-04-01T18:54:27;95016.63;;;7.27;61.94
72636;BME280;60679;48.888;15.544;2023-04-01T18:57:15;95016.03;;;7.25;62.20
72636;BME280;60679;48.888;15.544;2023-04-01T18:59:57;95015.44;;;7.23;62.18
72636;BME280;60679;48.888;15.544;2023-04-01T19:02:41;95031.78;;;7.33;62.19
72636;BME280;60679;48.888;15.544;2023-04-01T19:05:29;95031.91;;;7.38;62.45
72636;BME280;60679;48.888;15.544;2023-04-01T19:08:14;95039.38;;;7.36;62.37
72636;BME280;60679;48.888;15.544;2023-04-01T19:11:06;95038.31;;;7.37;62.43
72636;BME280;60679;48.888;15.544;2023-04-01T19:22:21;95056.44;;;7.30;62.75
72636;BME280;60679;48.888;15.544;2023-04-01T19:25:15;95058.53;;;7.28;62.75
72636;BME280;60679;48.888;15.544;2023-04-01T19:27:50;95058.63;;;7.21;62.89
72636;BME280;60679;48.888;15.544;2023-04-01T19:30:36;95068.56;;;7.21;63.08
72636;BME280;60679;48.888;15.544;2023-04-01T19:33:22;95057.59;;;7.22;63.05
72636;BME280;60679;48.888;15.544;2023-04-01T19:36:11;95068.44;;;7.27;63.09
72636;BME280;60679;48.888;15.544;2023-04-01T19:44:20;95073.09;;;7.20;63.54
72636;BME280;60679;48.888;15.544;2023-04-01T19:46:53;95064.47;;;7.18;63.37
72636;BME280;60679;48.888;15.544;2023-04-01T19:52:37;95075.66;;;7.15;63.56
72636;BME280;60679;48.888;15.544;2023-04-01T19:58:19;95085.13;;;7.18;63.56
72636;BME280;60679;48.888;15.544;2023-04-01T20:00:56;95080.69;;;7.23;63.59
72636;BME280;60679;48.888;15.544;2023-04-01T20:07:10;95092.72;;;7.32;63.84
72636;BME280;60679;48.888;15.544;2023-04-01T20:09:15;95098.00;;;7.39;63.59
72636;BME280;60679;48.888;15.544;2023-04-01T20:14:47;95104.06;;;7.46;63.73
72636;BME280;60679;48.888;15.544;2023-04-01T20:17:33;95092.97;;;7.42;63.88
72636;BME280;60679;48.888;15.544;2023-04-01T20:23:00;95102.28;;;7.40;63.96
72636;BME280;60679;48.888;15.544;2023-04-01T20:25:32;95099.63;;;7.40;64.30
72636;BME280;60679;48.888;15.544;2023-04-01T20:44:29;95099.69;;;6.98;64.79
72636;BME280;60679;48.888;15.544;2023-04-01T20:54:52;95113.34;;;6.67;65.48
72636;BME280;60679;48.888;15.544;2023-04-01T21:08:11;95127.47;;;6.45;65.73
72636;BME280;60679;48.888;15.544;2023-04-01T21:10:43;95116.63;;;6.39;66.00
72636;BME280;60679;48.888;15.544;2023-04-01T21:24:51;95133.22;;;6.48;66.05
72636;BME280;60679;48.888;15.544;2023-04-01T21:32:58;95147.78;;;6.52;66.12
72636;BME280;60679;48.888;15.544;2023-04-01T21:35:56;95142.81;;;6.56;66.32
72636;BME280;60679;48.888;15.544;2023-04-01T21:38:51;95139.41;;;6.49;66.28
72636;BME280;60679;48.888;15.544;2023-04-01T21:41:42;95137.19;;;6.46;66.40
72636;BME280;60679;48.888;15.544;2023-04-01T21:44:38;95144.06;;;6.53;66.47
72636;BME280;60679;48.888;15.544;2023-04-01T21:53:16;95151.84;;;6.73;66.25
72636;BME280;60679;48.888;15.544;2023-04-01T21:59:01;95148.97;;;6.86;66.62
72636;BME280;60679;48.888;15.544;2023-04-01T22:04:58;95144.94;;;6.95;66.46
72636;BME280;60679;48.888;15.544;2023-04-01T22:07:33;95139.81;;;6.93;66.62
72636;BME280;60679;48.888;15.544;2023-04-01T22:10:24;95140.97;;;6.97;66.54
72636;BME280;60679;48.888;15.544;2023-04-01T22:13:14;95141.09;;;6.91;66.79
72636;BME280;60679;48.888;15.544;2023-04-01T22:18:33;95148.97;;;6.86;66.90
72636;BME280;60679;48.888;15.544;2023-04-01T22:23:40;95139.34;;;6.67;67.09
72636;BME280;60679;48.888;15.544;2023-04-01T22:29:40;95137.53;;;6.49;67.39
72636;BME280;60679;48.888;15.544;2023-04-01T22:32:20;95136.56;;;6.44;67.36
72636;BME280;60679;48.888;15.544;2023-04-01T22:34:56;95153.47;;;6.44;67.61
72636;BME280;60679;48.888;15.544;2023-04-01T22:42:46;95142.53;;;6.27;67.58
72636;BME280;60679;48.888;15.544;2023-04-01T22:50:19;95144.13;;;6.17;67.79
72636;BME280;60679;48.888;15.544;2023-04-01T22:52:53;95147.50;;;6.12;67.76
72636;BME280;60679;48.888;15.544;2023-04-01T22:55:24;95142.41;;;6.04;67.81
72636;BME280;60679;48.888;15.544;2023-04-01T22:58:02;95144.50;;;6.02;68.07
72636;BME280;60679;48.888;15.544;2023-04-01T23:00:45;95145.16;;;5.98;68.22